Time;durP1;ratioP1;P1;durP2;ratioP2;P2;SDS_P1;SDS_P2;PMS_P1;PMS_P2;Temp;Humidity;BMP_temperature;BMP_pressure;BME280_temperature;BME280_humidity;BME280_pressure;Samples;Min_cycle;Max_cycle;Signal;HPM_P1;HPM_P2
2022/01/11 00:01:15;;;;;;;24.45;17.13;;;;;;;;;;5044880;28;20199;-78
2022/01/11 00:03:43;;;;;;;28.27;18.88;;;;;;;;;;5035010;28;20194;-78
2022/01/11 00:06:26;;;;;;;26.67;18.95;;;;;;;;;;5048349;28;20225;-78
2022/01/11 00:08:54;;;;;;;32.00;18.98;;;;;;;;;;5034665;28;20246;-79
2022/01/11 00:11:21;;;;;;;28.23;18.75;;;;;;;;;;5052990;28;20252;-78
2022/01/11 00:13:49;;;;;;;25.70;18.23;;;;;;;;;;5053813;28;20203;-78
2022/01/11 00:16:17;;;;;;;28.67;19.55;;;;;;;;;;5049505;28;20229;-78
2022/01/11 00:18:44;;;;;;;24.75;18.15;;;;;;;;;;5037946;28;20202;-79
2022/01/11 00:21:11;;;;;;;22.05;16.90;;;;;;;;;;5046919;28;20201;-78
2022/01/11 00:26:23;;;;;;;23.15;16.60;;;;;;;;;;5053759;28;20214;-79
2022/01/11 00:28:50;;;;;;;25.02;17.75;;;;;;;;;;5047942;28;20199;-77
2022/01/11 00:31:19;;;;;;;26.58;17.33;;;;;;;;;;5048260;28;20200;-79
2022/01/11 00:33:47;;;;;;;29.05;17.73;;;;;;;;;;5059038;28;20199;-79
2022/01/11 00:36:14;;;;;;;27.20;18.83;;;;;;;;;;5054401;28;20192;-77
2022/01/11 00:38:42;;;;;;;20.63;16.55;;;;;;;;;;5023753;28;20242;-79
2022/01/11 00:41:10;;;;;;;28.45;18.58;;;;;;;;;;5048524;28;20214;-79
2022/01/11 00:43:38;;;;;;;21.85;16.95;;;;;;;;;;5053033;28;20205;-78
2022/01/11 00:46:05;;;;;;;30.33;18.88;;;;;;;;;;5063029;28;20191;-78
2022/01/11 00:48:35;;;;;;;25.98;16.80;;;;;;;;;;5053468;28;20191;-79
2022/01/11 00:51:02;;;;;;;24.13;17.35;;;;;;;;;;5052993;28;20191;-79
2022/01/11 00:53:34;;;;;;;21.55;16.83;;;;;;;;;;5058309;28;20226;-77
2022/01/11 00:56:01;;;;;;;25.30;16.33;;;;;;;;;;5056006;28;20567;-78
2022/01/11 00:58:28;;;;;;;19.70;15.63;;;;;;;;;;5054011;28;20563;-78
2022/01/11 01:00:55;;;;;;;26.77;17.63;;;;;;;;;;5042476;28;20191;-79
2022/01/11 01:03:23;;;;;;;23.42;16.90;;;;;;;;;;5059141;28;20196;-78
2022/01/11 01:05:51;;;;;;;22.60;16.90;;;;;;;;;;5049065;28;20238;-78
2022/01/11 01:08:18;;;;;;;23.13;16.02;;;;;;;;;;5045656;28;20223;-78
2022/01/11 01:10:47;;;;;;;22.35;15.60;;;;;;;;;;5043181;28;20650;-79
2022/01/11 01:13:17;;;;;;;27.10;18.40;;;;;;;;;;5053826;28;20234;-79
2022/01/11 01:15:46;;;;;;;26.67;16.90;;;;;;;;;;5043281;28;20210;-77
2022/01/11 01:18:15;;;;;;;27.08;17.60;;;;;;;;;;5055924;28;20336;-78
2022/01/11 01:20:42;;;;;;;17.95;13.93;;;;;;;;;;5034872;28;20196;-78
2022/01/11 01:23:11;;;;;;;20.77;16.98;;;;;;;;;;5049445;28;20199;-78
2022/01/11 01:25:38;;;;;;;21.20;15.57;;;;;;;;;;5040310;28;20199;-77
2022/01/11 01:28:06;;;;;;;24.33;15.50;;;;;;;;;;5043598;28;20222;-78
2022/01/11 01:30:33;;;;;;;21.75;15.30;;;;;;;;;;5032716;28;20358;-77
2022/01/11 01:33:00;;;;;;;21.27;15.68;;;;;;;;;;5033978;28;20195;-79
2022/01/11 01:35:33;;;;;;;20.55;15.57;;;;;;;;;;5045205;28;20206;-78
2022/01/11 01:38:00;;;;;;;22.55;14.63;;;;;;;;;;5044137;28;20654;-78
2022/01/11 01:40:35;;;;;;;21.73;15.45;;;;;;;;;;5047009;28;20570;-78
2022/01/11 01:43:03;;;;;;;22.30;15.05;;;;;;;;;;5031994;28;20290;-78
2022/01/11 01:45:30;;;;;;;19.83;15.30;;;;;;;;;;5041259;28;20202;-78
2022/01/11 01:47:58;;;;;;;18.80;14.82;;;;;;;;;;5031898;28;20215;-78
2022/01/11 01:50:25;;;;;;;20.20;15.35;;;;;;;;;;5033134;28;20191;-78
2022/01/11 01:52:53;;;;;;;24.17;15.70;;;;;;;;;;5033888;28;20210;-78
2022/01/11 01:55:20;;;;;;;22.08;14.77;;;;;;;;;;5035255;28;20199;-78
2022/01/11 01:57:52;;;;;;;17.15;13.73;;;;;;;;;;5033849;28;20190;-78
2022/01/11 02:00:19;;;;;;;23.85;14.88;;;;;;;;;;5048360;28;20191;-77
2022/01/11 02:02:47;;;;;;;16.50;13.30;;;;;;;;;;5046403;28;20578;-76
2022/01/11 02:05:14;;;;;;;20.55;13.90;;;;;;;;;;5050647;28;20218;-76
2022/01/11 02:07:42;;;;;;;17.92;14.40;;;;;;;;;;5037474;28;20301;-77
2022/01/11 02:10:09;;;;;;;17.92;13.57;;;;;;;;;;5037897;28;20209;-77
2022/01/11 02:12:38;;;;;;;20.58;14.65;;;;;;;;;;5049612;28;20241;-77
2022/01/11 02:15:10;;;;;;;20.02;15.27;;;;;;;;;;5050365;28;20202;-76
2022/01/11 02:17:38;;;;;;;17.23;14.05;;;;;;;;;;5043975;28;20199;-76
2022/01/11 02:20:07;;;;;;;21.95;14.45;;;;;;;;;;5045620;28;20214;-76
2022/01/11 02:22:36;;;;;;;19.17;14.25;;;;;;;;;;5048911;28;20198;-76
2022/01/11 02:25:03;;;;;;;21.80;15.13;;;;;;;;;;5041589;28;20196;-77
2022/01/11 02:27:32;;;;;;;20.08;14.65;;;;;;;;;;5039160;28;20577;-77
2022/01/11 02:30:00;;;;;;;20.95;14.80;;;;;;;;;;5046515;28;20745;-77
2022/01/11 02:32:27;;;;;;;18.15;12.98;;;;;;;;;;5051049;28;20199;-77
2022/01/11 02:34:55;;;;;;;17.23;13.18;;;;;;;;;;5039235;28;20191;-79
2022/01/11 02:37:22;;;;;;;19.70;12.65;;;;;;;;;;5037832;28;20194;-78
2022/01/11 02:39:50;;;;;;;23.55;15.60;;;;;;;;;;5045259;28;20194;-78
2022/01/11 02:42:17;;;;;;;21.10;13.55;;;;;;;;;;5050819;28;20190;-78
2022/01/11 02:44:44;;;;;;;17.40;12.70;;;;;;;;;;5035534;28;20651;-79
2022/01/11 02:47:11;;;;;;;20.80;13.90;;;;;;;;;;5035901;28;20231;-77
2022/01/11 02:49:39;;;;;;;16.25;14.02;;;;;;;;;;5035321;28;20594;-77
2022/01/11 02:52:06;;;;;;;24.55;13.48;;;;;;;;;;5045203;28;20195;-77
2022/01/11 02:54:33;;;;;;;23.73;14.23;;;;;;;;;;5044367;28;20199;-77
2022/01/11 02:57:02;;;;;;;17.52;12.25;;;;;;;;;;5037465;28;20207;-77
2022/01/11 02:59:29;;;;;;;19.95;14.25;;;;;;;;;;5040504;28;20287;-77
2022/01/11 03:01:56;;;;;;;16.42;12.82;;;;;;;;;;5038176;28;20199;-78
2022/01/11 03:04:28;;;;;;;19.13;13.90;;;;;;;;;;5039074;28;20669;-77
2022/01/11 03:06:56;;;;;;;17.25;12.65;;;;;;;;;;5067504;28;20260;-78
2022/01/11 03:09:41;;;;;;;20.27;14.38;;;;;;;;;;5056743;28;20204;-76
2022/01/11 03:12:16;;;;;;;16.85;12.70;;;;;;;;;;5024101;28;20305;-76
2022/01/11 03:14:43;;;;;;;19.77;12.25;;;;;;;;;;5055040;28;20680;-78
2022/01/11 03:17:10;;;;;;;15.20;12.35;;;;;;;;;;5050400;28;20336;-77
2022/01/11 03:19:45;;;;;;;19.05;14.60;;;;;;;;;;5043845;28;20203;-77
2022/01/11 03:22:12;;;;;;;19.45;14.32;;;;;;;;;;5051352;28;20195;-78
2022/01/11 03:24:40;;;;;;;20.77;13.38;;;;;;;;;;5037998;28;20278;-79
2022/01/11 03:27:08;;;;;;;15.43;12.18;;;;;;;;;;5053918;28;20692;-79
2022/01/11 03:29:37;;;;;;;15.70;12.45;;;;;;;;;;5048562;28;20222;-78
2022/01/11 03:32:05;;;;;;;15.85;11.40;;;;;;;;;;5046362;28;20208;-78
2022/01/11 03:34:32;;;;;;;19.92;14.15;;;;;;;;;;5034861;28;20204;-78
2022/01/11 03:37:00;;;;;;;14.55;11.60;;;;;;;;;;5035181;28;20651;-77
2022/01/11 03:39:27;;;;;;;15.73;11.27;;;;;;;;;;5049978;28;20655;-77
2022/01/11 03:41:54;;;;;;;17.88;13.10;;;;;;;;;;5043162;28;20203;-77
2022/01/11 03:44:24;;;;;;;14.75;10.68;;;;;;;;;;5052100;28;20197;-76
2022/01/11 03:46:52;;;;;;;14.00;11.70;;;;;;;;;;5039788;28;20669;-76
2022/01/11 03:49:19;;;;;;;14.95;11.10;;;;;;;;;;5043018;28;20218;-77
2022/01/11 03:51:50;;;;;;;15.35;13.00;;;;;;;;;;5044521;28;20546;-77
2022/01/11 03:54:24;;;;;;;20.70;11.98;;;;;;;;;;5049569;28;20192;-77
2022/01/11 03:56:51;;;;;;;17.73;11.95;;;;;;;;;;5038186;28;20191;-77
2022/01/11 03:59:19;;;;;;;14.38;11.30;;;;;;;;;;5034866;28;20196;-77
2022/01/11 04:01:48;;;;;;;14.48;11.15;;;;;;;;;;5038477;28;20196;-76
2022/01/11 04:04:16;;;;;;;24.95;12.95;;;;;;;;;;5045102;28;20207;-76
2022/01/11 04:06:44;;;;;;;22.70;13.25;;;;;;;;;;5054444;28;20203;-77
2022/01/11 04:09:15;;;;;;;16.02;11.73;;;;;;;;;;5047518;28;20224;-77
2022/01/11 04:11:43;;;;;;;14.55;12.25;;;;;;;;;;5047590;28;20252;-77
2022/01/11 04:14:13;;;;;;;17.45;11.88;;;;;;;;;;5050704;28;20210;-77
2022/01/11 04:16:40;;;;;;;15.05;11.77;;;;;;;;;;5040802;28;20199;-77
2022/01/11 04:19:07;;;;;;;16.25;11.57;;;;;;;;;;5035948;28;20643;-76
2022/01/11 04:21:35;;;;;;;15.68;11.60;;;;;;;;;;5064277;28;20226;-78
2022/01/11 04:24:03;;;;;;;16.85;11.93;;;;;;;;;;5059060;28;20203;-77
2022/01/11 04:26:30;;;;;;;13.88;11.38;;;;;;;;;;5047553;28;20681;-78
2022/01/11 04:28:57;;;;;;;14.00;10.13;;;;;;;;;;5053341;28;20210;-78
2022/01/11 04:31:24;;;;;;;12.93;9.90;;;;;;;;;;5044311;28;20216;-78
2022/01/11 04:33:51;;;;;;;13.40;11.02;;;;;;;;;;5034024;28;20203;-77
2022/01/11 04:36:18;;;;;;;15.45;12.10;;;;;;;;;;5041782;28;20199;-77
2022/01/11 04:38:47;;;;;;;15.75;10.20;;;;;;;;;;5040421;28;20192;-77
2022/01/11 04:41:15;;;;;;;18.40;10.75;;;;;;;;;;5035090;28;20195;-77
2022/01/11 04:43:42;;;;;;;12.73;11.20;;;;;;;;;;5046334;28;20192;-77
2022/01/11 04:46:10;;;;;;;13.25;11.25;;;;;;;;;;5051295;28;20203;-78
2022/01/11 04:48:37;;;;;;;18.60;11.48;;;;;;;;;;5038863;28;20210;-78
2022/01/11 04:51:06;;;;;;;10.73;9.40;;;;;;;;;;5053674;28;20195;-77
2022/01/11 04:53:36;;;;;;;13.55;10.68;;;;;;;;;;5051842;28;20209;-77
2022/01/11 04:56:07;;;;;;;20.23;9.80;;;;;;;;;;5037914;28;20199;-77
2022/01/11 04:58:35;;;;;;;17.48;10.50;;;;;;;;;;5052095;28;20547;-77
2022/01/11 05:01:02;;;;;;;15.73;10.63;;;;;;;;;;5035605;28;20343;-76
2022/01/11 05:03:32;;;;;;;15.63;11.52;;;;;;;;;;5040315;28;20203;-79
2022/01/11 05:06:01;;;;;;;12.43;9.65;;;;;;;;;;5039423;28;20238;-78
2022/01/11 05:08:31;;;;;;;14.27;10.85;;;;;;;;;;5050580;28;20210;-79
2022/01/11 05:10:59;;;;;;;13.90;11.20;;;;;;;;;;5042997;28;20662;-79
2022/01/11 05:13:31;;;;;;;12.32;10.48;;;;;;;;;;5050100;28;20204;-80
2022/01/11 05:16:02;;;;;;;12.25;10.00;;;;;;;;;;5040969;28;20226;-79
2022/01/11 05:18:30;;;;;;;14.38;10.13;;;;;;;;;;5033082;28;20605;-79
2022/01/11 05:21:00;;;;;;;12.07;10.70;;;;;;;;;;5032704;28;20196;-79
2022/01/11 05:26:15;;;;;;;13.68;10.50;;;;;;;;;;5046213;28;20205;-79
2022/01/11 05:28:47;;;;;;;13.75;10.68;;;;;;;;;;5047470;28;20207;-78
2022/01/11 05:31:15;;;;;;;26.23;10.52;;;;;;;;;;5047143;28;20278;-78
2022/01/11 05:33:43;;;;;;;15.35;11.00;;;;;;;;;;5043773;28;20605;-77
2022/01/11 05:36:11;;;;;;;16.15;11.93;;;;;;;;;;5039352;28;20223;-77
2022/01/11 05:38:39;;;;;;;13.68;10.02;;;;;;;;;;5045096;28;20257;-78
2022/01/11 05:41:07;;;;;;;14.60;10.40;;;;;;;;;;5044799;28;20298;-77
2022/01/11 05:43:35;;;;;;;11.82;9.52;;;;;;;;;;5032746;28;20215;-77
2022/01/11 05:46:11;;;;;;;14.18;10.70;;;;;;;;;;5036203;28;20503;-77
2022/01/11 05:48:38;;;;;;;14.55;11.13;;;;;;;;;;5040622;28;20215;-77
2022/01/11 05:51:05;;;;;;;18.80;10.15;;;;;;;;;;5036512;28;20197;-76
2022/01/11 05:53:32;;;;;;;16.38;10.73;;;;;;;;;;5036566;28;20599;-77
2022/01/11 05:55:59;;;;;;;17.02;10.73;;;;;;;;;;5049423;28;20192;-77
2022/01/11 05:58:26;;;;;;;14.20;10.27;;;;;;;;;;5037322;28;20662;-77
2022/01/11 06:00:58;;;;;;;13.98;10.65;;;;;;;;;;5044277;28;20206;-76
2022/01/11 06:03:27;;;;;;;14.23;10.30;;;;;;;;;;5032655;28;20203;-76
2022/01/11 06:05:54;;;;;;;12.90;8.27;;;;;;;;;;5042410;28;20238;-76
2022/01/11 06:08:22;;;;;;;15.23;10.38;;;;;;;;;;5041192;28;20306;-76
2022/01/11 06:10:49;;;;;;;13.38;9.07;;;;;;;;;;5047773;28;20202;-77
2022/01/11 06:13:16;;;;;;;14.20;9.07;;;;;;;;;;5051258;28;20190;-75
2022/01/11 06:15:43;;;;;;;12.90;9.27;;;;;;;;;;5048429;28;20200;-76
2022/01/11 06:18:10;;;;;;;16.63;12.77;;;;;;;;;;5039505;28;20210;-76
2022/01/11 06:20:39;;;;;;;13.23;9.45;;;;;;;;;;5031721;28;20210;-76
2022/01/11 06:23:06;;;;;;;15.05;10.63;;;;;;;;;;5036443;28;20729;-77
2022/01/11 06:25:34;;;;;;;12.45;9.63;;;;;;;;;;5036073;28;20193;-75
2022/01/11 06:28:01;;;;;;;15.60;11.05;;;;;;;;;;5036031;28;20211;-76
2022/01/11 06:30:28;;;;;;;13.35;9.38;;;;;;;;;;5036362;28;20227;-76
2022/01/11 06:32:56;;;;;;;17.38;10.07;;;;;;;;;;5039087;28;20217;-75
2022/01/11 06:35:24;;;;;;;16.80;9.75;;;;;;;;;;5050791;28;20597;-76
2022/01/11 06:37:52;;;;;;;14.40;10.30;;;;;;;;;;5052029;28;20209;-75
2022/01/11 06:40:21;;;;;;;12.82;10.10;;;;;;;;;;5041463;28;20205;-75
2022/01/11 06:42:50;;;;;;;12.65;9.52;;;;;;;;;;5028775;28;20265;-76
2022/01/11 06:45:20;;;;;;;16.23;11.68;;;;;;;;;;5048379;28;20264;-76
2022/01/11 06:47:47;;;;;;;12.30;10.15;;;;;;;;;;5043958;28;20192;-76
2022/01/11 06:50:15;;;;;;;15.02;10.38;;;;;;;;;;5031832;28;20215;-76
2022/01/11 06:52:42;;;;;;;16.48;10.73;;;;;;;;;;5040121;28;20202;-75
2022/01/11 06:55:14;;;;;;;14.13;9.88;;;;;;;;;;5031444;28;20199;-76
2022/01/11 06:57:42;;;;;;;13.98;10.80;;;;;;;;;;5045990;28;20200;-75
2022/01/11 07:00:10;;;;;;;16.67;10.10;;;;;;;;;;5045422;28;20764;-75
2022/01/11 07:02:37;;;;;;;16.88;10.35;;;;;;;;;;5043452;28;20199;-75
2022/01/11 07:05:08;;;;;;;13.57;11.30;;;;;;;;;;5042204;28;20214;-76
2022/01/11 07:07:35;;;;;;;15.35;11.82;;;;;;;;;;5019905;28;20204;-77
2022/01/11 07:10:02;;;;;;;16.33;9.88;;;;;;;;;;5050633;28;20302;-77
2022/01/11 07:12:33;;;;;;;15.27;11.00;;;;;;;;;;5051792;28;20568;-77
2022/01/11 07:15:00;;;;;;;13.65;9.70;;;;;;;;;;5042539;28;20255;-77
2022/01/11 07:17:27;;;;;;;12.90;11.48;;;;;;;;;;5047956;28;20563;-76
2022/01/11 07:19:55;;;;;;;16.35;9.32;;;;;;;;;;5050750;28;20731;-76
2022/01/11 07:22:22;;;;;;;17.38;10.77;;;;;;;;;;5042002;28;20203;-76
2022/01/11 07:24:49;;;;;;;15.73;10.68;;;;;;;;;;5050777;28;20674;-76
2022/01/11 07:27:17;;;;;;;13.45;10.65;;;;;;;;;;5039184;28;20678;-76
2022/01/11 07:29:46;;;;;;;16.45;11.50;;;;;;;;;;5040213;28;20716;-76
2022/01/11 07:32:13;;;;;;;16.38;11.30;;;;;;;;;;5041040;28;20200;-75
2022/01/11 07:34:40;;;;;;;16.98;11.05;;;;;;;;;;5046716;28;20528;-75
2022/01/11 07:37:07;;;;;;;18.20;11.02;;;;;;;;;;5052011;28;20191;-75
2022/01/11 07:39:34;;;;;;;13.73;10.73;;;;;;;;;;5038581;28;20192;-75
2022/01/11 07:42:01;;;;;;;17.05;10.85;;;;;;;;;;5035365;28;20206;-74
2022/01/11 07:44:28;;;;;;;12.75;10.73;;;;;;;;;;5044099;28;20199;-73
2022/01/11 07:46:57;;;;;;;15.82;10.60;;;;;;;;;;5049887;28;20211;-74
2022/01/11 07:49:24;;;;;;;15.85;11.50;;;;;;;;;;5034356;28;20301;-75
2022/01/11 07:51:51;;;;;;;15.50;11.38;;;;;;;;;;5047001;28;20199;-75
2022/01/11 07:54:18;;;;;;;14.65;11.32;;;;;;;;;;5037063;28;20201;-75
2022/01/11 07:56:45;;;;;;;14.18;10.05;;;;;;;;;;5046080;28;20195;-75
2022/01/11 07:59:12;;;;;;;12.75;9.82;;;;;;;;;;5053232;28;20199;-74
2022/01/11 08:01:41;;;;;;;15.75;10.38;;;;;;;;;;5038924;28;20196;-74
2022/01/11 08:04:10;;;;;;;13.18;9.13;;;;;;;;;;5035855;28;20566;-76
2022/01/11 08:06:37;;;;;;;17.58;10.75;;;;;;;;;;5052961;28;20203;-74
2022/01/11 08:09:04;;;;;;;13.20;9.70;;;;;;;;;;5047992;28;20218;-74
2022/01/11 08:11:32;;;;;;;16.05;8.65;;;;;;;;;;5051657;28;20195;-75
2022/01/11 08:13:59;;;;;;;13.18;11.38;;;;;;;;;;5048906;28;20574;-74
2022/01/11 08:16:27;;;;;;;13.63;9.48;;;;;;;;;;5045703;28;20203;-75
2022/01/11 08:18:54;;;;;;;15.50;10.00;;;;;;;;;;5035245;28;20372;-75
2022/01/11 08:21:23;;;;;;;15.68;10.23;;;;;;;;;;5035086;28;20196;-75
2022/01/11 08:23:50;;;;;;;17.00;10.30;;;;;;;;;;5039853;28;20202;-73
2022/01/11 08:26:19;;;;;;;11.90;10.02;;;;;;;;;;5047944;28;20202;-75
2022/01/11 08:28:46;;;;;;;12.18;9.15;;;;;;;;;;5021222;28;20275;-75
2022/01/11 08:31:14;;;;;;;12.20;10.75;;;;;;;;;;5039837;28;20203;-75
2022/01/11 08:33:41;;;;;;;14.93;9.45;;;;;;;;;;5053648;28;20209;-75
2022/01/11 08:36:08;;;;;;;16.75;10.27;;;;;;;;;;5044973;28;20677;-75
2022/01/11 08:38:37;;;;;;;13.45;10.20;;;;;;;;;;5044313;28;20579;-75
2022/01/11 08:41:04;;;;;;;13.80;10.77;;;;;;;;;;5049973;28;20205;-74
2022/01/11 08:43:31;;;;;;;15.05;10.05;;;;;;;;;;5053794;28;20672;-75
2022/01/11 08:45:59;;;;;;;12.90;9.70;;;;;;;;;;5050426;28;20195;-75
2022/01/11 08:48:26;;;;;;;12.57;8.88;;;;;;;;;;5049077;28;20615;-75
2022/01/11 08:50:53;;;;;;;12.60;9.85;;;;;;;;;;5053085;28;20214;-75
2022/01/11 08:53:21;;;;;;;17.15;11.23;;;;;;;;;;5034913;28;20249;-75
2022/01/11 08:55:54;;;;;;;14.15;9.90;;;;;;;;;;5047055;28;20198;-75
2022/01/11 08:58:21;;;;;;;11.88;9.73;;;;;;;;;;5035936;28;20253;-74
2022/01/11 09:00:49;;;;;;;12.75;9.98;;;;;;;;;;5044073;28;20199;-76
2022/01/11 09:03:17;;;;;;;12.30;10.18;;;;;;;;;;5031224;28;20226;-76
2022/01/11 09:05:45;;;;;;;16.60;10.60;;;;;;;;;;5052827;28;20219;-76
2022/01/11 09:08:12;;;;;;;15.05;10.23;;;;;;;;;;5049527;28;20199;-76
2022/01/11 09:10:40;;;;;;;12.57;10.10;;;;;;;;;;5016483;28;20269;-74
2022/01/11 09:13:09;;;;;;;14.98;10.57;;;;;;;;;;5036109;28;20206;-75
2022/01/11 09:15:36;;;;;;;15.85;11.43;;;;;;;;;;5032877;28;20211;-76
2022/01/11 09:18:04;;;;;;;13.05;9.85;;;;;;;;;;5033630;28;20207;-76
2022/01/11 09:20:31;;;;;;;16.52;9.88;;;;;;;;;;5037690;28;20199;-76
2022/01/11 09:22:59;;;;;;;16.77;11.30;;;;;;;;;;5037651;28;20682;-76
2022/01/11 09:25:27;;;;;;;14.55;10.20;;;;;;;;;;5047700;28;20202;-76
2022/01/11 09:27:54;;;;;;;16.58;12.75;;;;;;;;;;5049309;28;20206;-76
2022/01/11 09:30:23;;;;;;;16.95;11.07;;;;;;;;;;5042954;28;20596;-76
2022/01/11 09:32:50;;;;;;;13.95;9.93;;;;;;;;;;5041125;28;20685;-77
2022/01/11 09:35:17;;;;;;;15.70;11.80;;;;;;;;;;5046907;28;20199;-77
2022/01/11 09:37:46;;;;;;;20.42;12.07;;;;;;;;;;5045091;28;20277;-76
2022/01/11 09:40:18;;;;;;;14.43;10.60;;;;;;;;;;5048970;28;20249;-76
2022/01/11 09:42:46;;;;;;;14.55;10.70;;;;;;;;;;5051299;28;20194;-76
2022/01/11 09:45:14;;;;;;;12.70;10.02;;;;;;;;;;5052757;28;20224;-76
2022/01/11 09:47:43;;;;;;;15.27;10.63;;;;;;;;;;5037534;28;20230;-76
2022/01/11 09:50:11;;;;;;;16.42;10.05;;;;;;;;;;5052740;28;20210;-76
2022/01/11 09:52:39;;;;;;;14.38;10.20;;;;;;;;;;5050726;28;20206;-76
2022/01/11 09:55:07;;;;;;;14.65;10.93;;;;;;;;;;5052291;28;20234;-77
2022/01/11 09:57:34;;;;;;;12.50;9.85;;;;;;;;;;5063115;28;20297;-75
2022/01/11 10:00:05;;;;;;;14.27;8.90;;;;;;;;;;5057431;28;20195;-75
2022/01/11 10:02:32;;;;;;;13.38;8.70;;;;;;;;;;5045680;28;20202;-76
2022/01/11 10:05:06;;;;;;;12.07;9.35;;;;;;;;;;5032001;28;20230;-78
2022/01/11 10:07:34;;;;;;;12.18;8.73;;;;;;;;;;5034331;28;20214;-76
2022/01/11 10:10:02;;;;;;;11.27;9.18;;;;;;;;;;5032382;28;20230;-76
2022/01/11 10:12:34;;;;;;;19.05;9.10;;;;;;;;;;5039576;28;20194;-76
2022/01/11 10:15:01;;;;;;;15.00;9.50;;;;;;;;;;5052244;28;20569;-76
2022/01/11 10:17:29;;;;;;;10.50;8.18;;;;;;;;;;5038203;28;20206;-76
2022/01/11 10:20:02;;;;;;;12.98;7.93;;;;;;;;;;5040896;28;20199;-76
2022/01/11 10:22:31;;;;;;;11.77;7.97;;;;;;;;;;5047571;28;20203;-76
2022/01/11 10:24:59;;;;;;;10.02;8.70;;;;;;;;;;5037289;28;20200;-76
2022/01/11 10:27:29;;;;;;;10.50;8.02;;;;;;;;;;5038316;28;20206;-76
2022/01/11 10:29:57;;;;;;;12.02;8.80;;;;;;;;;;5035391;28;20581;-76
2022/01/11 10:32:26;;;;;;;11.85;8.02;;;;;;;;;;5048964;28;20577;-76
2022/01/11 10:34:56;;;;;;;10.55;7.97;;;;;;;;;;5041932;28;20195;-76
2022/01/11 10:37:32;;;;;;;10.23;7.10;;;;;;;;;;5050400;28;20202;-76
2022/01/11 10:40:05;;;;;;;12.93;7.15;;;;;;;;;;5045308;28;20203;-76
2022/01/11 10:42:33;;;;;;;8.88;7.32;;;;;;;;;;5040435;28;20221;-76
2022/01/11 10:45:01;;;;;;;9.55;7.45;;;;;;;;;;5038588;28;20203;-76
2022/01/11 10:47:29;;;;;;;10.43;7.40;;;;;;;;;;5056475;28;20190;-76
2022/01/11 10:49:58;;;;;;;6.82;6.03;;;;;;;;;;5046714;28;20210;-76
2022/01/11 10:52:26;;;;;;;9.00;6.50;;;;;;;;;;5055075;28;20207;-76
2022/01/11 10:54:55;;;;;;;9.88;6.68;;;;;;;;;;5058387;28;20574;-76
2022/01/11 10:57:23;;;;;;;12.07;7.32;;;;;;;;;;5048415;28;20207;-77
2022/01/11 11:00:05;;;;;;;9.27;7.15;;;;;;;;;;5047375;28;20191;-77
2022/01/11 11:02:33;;;;;;;10.45;6.97;;;;;;;;;;5036408;28;20204;-75
2022/01/11 11:05:00;;;;;;;6.43;5.78;;;;;;;;;;5045447;28;20246;-76
2022/01/11 11:07:28;;;;;;;9.93;7.20;;;;;;;;;;5052857;28;20194;-76
2022/01/11 11:09:56;;;;;;;8.43;6.35;;;;;;;;;;5058732;28;20222;-77
2022/01/11 11:12:26;;;;;;;6.93;6.05;;;;;;;;;;5048287;28;20570;-77
2022/01/11 11:14:54;;;;;;;10.18;6.78;;;;;;;;;;5044906;28;20229;-76
2022/01/11 11:17:31;;;;;;;7.07;6.38;;;;;;;;;;5054408;28;20195;-77
2022/01/11 11:20:00;;;;;;;9.75;6.53;;;;;;;;;;5052705;28;20198;-77
2022/01/11 11:22:27;;;;;;;7.00;5.57;;;;;;;;;;5053535;28;20244;-77
2022/01/11 11:24:56;;;;;;;7.20;5.53;;;;;;;;;;5034054;28;20192;-75
2022/01/11 11:27:24;;;;;;;7.88;5.50;;;;;;;;;;5034049;28;20203;-75
2022/01/11 11:29:51;;;;;;;8.20;5.65;;;;;;;;;;5047954;28;20269;-76
2022/01/11 11:32:19;;;;;;;6.97;5.38;;;;;;;;;;5036346;28;20667;-75
2022/01/11 11:34:52;;;;;;;8.18;6.00;;;;;;;;;;5056411;28;20646;-76
2022/01/11 11:37:21;;;;;;;7.25;5.90;;;;;;;;;;5034368;28;20211;-75
2022/01/11 11:39:49;;;;;;;10.80;6.95;;;;;;;;;;5033727;28;20199;-75
2022/01/11 11:42:20;;;;;;;8.05;5.93;;;;;;;;;;5034108;28;20210;-75
2022/01/11 11:44:48;;;;;;;7.10;5.50;;;;;;;;;;5042655;28;20192;-76
2022/01/11 11:47:15;;;;;;;8.55;5.85;;;;;;;;;;5036841;28;20204;-76
2022/01/11 11:49:44;;;;;;;6.90;4.75;;;;;;;;;;5038309;28;20207;-76
2022/01/11 11:52:22;;;;;;;5.78;5.18;;;;;;;;;;5043540;28;20203;-76
2022/01/11 11:54:50;;;;;;;8.35;5.15;;;;;;;;;;5045973;28;20214;-76
2022/01/11 11:57:19;;;;;;;6.18;4.93;;;;;;;;;;5047887;28;20207;-76
2022/01/11 11:59:53;;;;;;;8.18;4.72;;;;;;;;;;5039454;28;20195;-76
2022/01/11 12:02:33;;;;;;;7.05;5.65;;;;;;;;;;5032758;28;20206;-76
2022/01/11 12:05:00;;;;;;;7.43;5.13;;;;;;;;;;5036093;28;20219;-75
2022/01/11 12:07:31;;;;;;;5.80;4.57;;;;;;;;;;5040263;28;20211;-76
2022/01/11 12:09:58;;;;;;;5.45;4.75;;;;;;;;;;5035969;28;20273;-75
2022/01/11 12:12:49;;;;;;;7.93;5.50;;;;;;;;;;5041977;28;20684;-76
2022/01/11 12:15:35;;;;;;;6.10;5.05;;;;;;;;;;5033067;28;20247;-75
2022/01/11 12:18:18;;;;;;;6.25;5.00;;;;;;;;;;5043306;28;20213;-76
2022/01/11 12:20:47;;;;;;;10.48;6.13;;;;;;;;;;5031343;28;20710;-76
2022/01/11 12:23:20;;;;;;;7.95;5.57;;;;;;;;;;5031294;28;20665;-76
2022/01/11 12:25:51;;;;;;;9.07;5.15;;;;;;;;;;5042015;28;20207;-75
2022/01/11 12:28:20;;;;;;;9.05;5.15;;;;;;;;;;5050892;28;20207;-75
2022/01/11 12:30:47;;;;;;;6.72;5.30;;;;;;;;;;5043579;28;20590;-75
2022/01/11 12:33:16;;;;;;;8.50;4.38;;;;;;;;;;5043102;28;20210;-75
2022/01/11 12:36:00;;;;;;;5.93;5.00;;;;;;;;;;5030196;28;20204;-76
2022/01/11 12:38:28;;;;;;;5.90;4.30;;;;;;;;;;5030635;28;20200;-75
2022/01/11 12:40:55;;;;;;;5.90;4.63;;;;;;;;;;5043874;28;20207;-75
2022/01/11 12:43:40;;;;;;;8.20;5.25;;;;;;;;;;5040040;28;20195;-76
2022/01/11 12:46:09;;;;;;;7.18;5.28;;;;;;;;;;5046234;28;20212;-75
2022/01/11 12:49:06;;;;;;;6.63;5.15;;;;;;;;;;5054040;28;20277;-75
2022/01/11 12:51:37;;;;;;;6.65;4.85;;;;;;;;;;5049836;28;20250;-76
2022/01/11 12:54:16;;;;;;;6.78;5.15;;;;;;;;;;5032996;28;20665;-75
2022/01/11 12:56:43;;;;;;;6.68;5.47;;;;;;;;;;5038345;28;20203;-75
2022/01/11 12:59:11;;;;;;;7.72;4.32;;;;;;;;;;5036717;28;20566;-75
2022/01/11 13:01:39;;;;;;;7.30;5.82;;;;;;;;;;5036629;28;20199;-75
2022/01/11 13:04:06;;;;;;;8.43;5.00;;;;;;;;;;5052713;28;20244;-76
2022/01/11 13:06:34;;;;;;;8.05;5.70;;;;;;;;;;5061128;28;20223;-75
2022/01/11 13:09:04;;;;;;;6.00;4.82;;;;;;;;;;5038663;28;20203;-76
2022/01/11 13:11:32;;;;;;;8.93;5.00;;;;;;;;;;5044689;28;20230;-75
2022/01/11 13:14:17;;;;;;;6.25;4.13;;;;;;;;;;5048798;28;20207;-75
2022/01/11 13:16:46;;;;;;;4.93;4.43;;;;;;;;;;5029943;28;20655;-76
2022/01/11 13:19:14;;;;;;;6.18;5.50;;;;;;;;;;5039048;28;20198;-75
2022/01/11 13:21:41;;;;;;;8.05;4.55;;;;;;;;;;5045818;28;20190;-76
2022/01/11 13:24:22;;;;;;;7.50;6.55;;;;;;;;;;5033118;28;20590;-76
2022/01/11 13:26:49;;;;;;;5.47;4.25;;;;;;;;;;5047508;28;20202;-75
2022/01/11 13:29:18;;;;;;;7.15;4.43;;;;;;;;;;5048548;28;20693;-75
2022/01/11 13:31:49;;;;;;;7.10;4.40;;;;;;;;;;5040937;28;20223;-75
2022/01/11 13:34:17;;;;;;;8.48;4.70;;;;;;;;;;5029215;28;20724;-75
2022/01/11 13:36:47;;;;;;;7.88;4.32;;;;;;;;;;5040114;28;20221;-77
2022/01/11 13:39:15;;;;;;;4.80;3.80;;;;;;;;;;5028410;28;20211;-75
2022/01/11 13:41:43;;;;;;;4.57;4.00;;;;;;;;;;5047963;28;20199;-76
2022/01/11 13:44:13;;;;;;;5.43;4.32;;;;;;;;;;5046920;28;20286;-76
2022/01/11 13:46:41;;;;;;;5.07;4.07;;;;;;;;;;5050375;28;20198;-75
2022/01/11 13:49:15;;;;;;;5.60;4.35;;;;;;;;;;5039238;28;20199;-75
2022/01/11 13:51:44;;;;;;;4.50;4.10;;;;;;;;;;5033681;28;20224;-76
2022/01/11 13:54:11;;;;;;;4.20;3.80;;;;;;;;;;5030557;28;20206;-77
2022/01/11 13:56:41;;;;;;;6.05;4.18;;;;;;;;;;5029031;28;20207;-76
2022/01/11 13:59:10;;;;;;;7.65;4.18;;;;;;;;;;5040145;28;20191;-76
2022/01/11 14:01:38;;;;;;;3.67;3.38;;;;;;;;;;5038222;28;20191;-77
2022/01/11 14:04:06;;;;;;;5.28;3.58;;;;;;;;;;5028932;28;20207;-76
2022/01/11 14:06:41;;;;;;;5.15;4.65;;;;;;;;;;5037768;28;20221;-75
2022/01/11 14:09:15;;;;;;;5.03;3.50;;;;;;;;;;5032935;28;20198;-76
2022/01/11 14:11:52;;;;;;;7.22;3.58;;;;;;;;;;5041281;28;20221;-76
2022/01/11 14:14:23;;;;;;;3.40;3.10;;;;;;;;;;5046885;28;20202;-76
2022/01/11 14:16:51;;;;;;;3.92;3.40;;;;;;;;;;5035542;28;20191;-76
2022/01/11 14:19:19;;;;;;;3.78;3.38;;;;;;;;;;5035055;28;20211;-76
2022/01/11 14:21:54;;;;;;;5.18;3.95;;;;;;;;;;5036112;28;20248;-76
2022/01/11 14:24:22;;;;;;;10.40;3.47;;;;;;;;;;5037556;28;20202;-76
2022/01/11 14:26:49;;;;;;;5.05;4.07;;;;;;;;;;5043017;28;20203;-76
2022/01/11 14:29:20;;;;;;;4.40;2.70;;;;;;;;;;5039649;28;20571;-76
2022/01/11 14:32:02;;;;;;;3.00;2.40;;;;;;;;;;5035541;28;20211;-76
2022/01/11 14:34:30;;;;;;;4.43;3.22;;;;;;;;;;5036381;28;20202;-79
2022/01/11 14:37:12;;;;;;;8.00;4.18;;;;;;;;;;5036499;28;20203;-77
2022/01/11 14:39:40;;;;;;;3.42;3.10;;;;;;;;;;5034950;28;20569;-75
2022/01/11 14:42:08;;;;;;;3.13;2.83;;;;;;;;;;5048798;28;20573;-76